Date,TemperatureHighF,TemperatureAvgF,TemperatureLowF,DewpointHighF,DewpointAvgF,DewpointLowF,HumidityHigh,HumidityAvg,HumidityLow,PressureMaxIn,PressureMinIn,WindSpeedMaxMPH,WindSpeedAvgMPH,GustSpeedMaxMPH,PrecipitationSumIn
2013-1-7,32,32,32,-100,-100,-100,0,0,100,0.00,40.00,0,0,0,0.00
2013-1-8,32,32,32,-100,-100,-100,0,0,100,0.00,40.00,0,0,0,0.00
2013-1-9,32,32,32,-100,-100,-100,0,0,100,0.00,40.00,0,0,0,0.00
2013-1-10,32,32,32,-100,-100,-100,0,0,100,0.00,40.00,0,0,0,0.00
2013-1-11,32,32,32,-100,-100,-100,0,0,100,0.00,40.00,0,0,0,0.00
2013-1-12,32,32,32,-100,-100,-100,0,0,100,0.00,40.00,0,0,0,0.00
2013-1-13,32,32,32,-100,-100,-100,0,0,100,0.00,40.00,0,0,0,0.00
2013-1-14,32,32,32,-100,-100,-100,0,0,100,0.00,40.00,0,0,0,0.00
2013-3-16,32,32,32,-100,-100,-100,0,0,100,0.00,40.00,0,0,0,0.00
2013-3-17,32,32,32,-100,-100,-100,0,0,100,0.00,40.00,0,0,0,0.00
2013-3-18,32,32,32,-100,-100,-100,0,0,100,0.00,40.00,0,0,0,0.00
2013-3-19,32,32,32,-100,-100,-100,0,0,100,0.00,40.00,0,0,0,0.00
2013-3-20,32,32,32,-100,-100,-100,0,0,100,0.00,40.00,0,0,0,0.00
2013-3-21,32,32,32,-100,-100,-100,0,0,100,0.00,40.00,0,0,0,0.00
2013-3-22,32,32,32,-100,-100,-100,0,0,100,0.00,40.00,0,0,0,0.00
2013-5-10,-200,0,200,-100,-100,-100,89,76,64,0.00,40.00,3,2,6,0.00
2013-5-11,-200,0,200,-100,-100,-100,53,53,53,0.00,40.00,3,3,7,0.00
2013-5-13,55,48,32,21,18,15,62,31,24,0.00,40.00,5,3,12,0.08
2013-5-14,49,39,25,27,22,17,92,55,37,0.00,40.00,5,3,10,0.01
2013-5-15,51,42,31,34,26,21,83,58,31,0.00,40.00,7,4,23,0.00
2013-5-16,42,37,36,38,20,-100,98,79,48,0.00,40.00,4,3,15,0.01
2013-5-17,38,36,31,37,34,-100,100,99,96,0.00,40.00,3,1,6,0.50
2013-5-18,41,33,26,31,27,22,100,79,50,0.00,40.00,3,2,9,0.74
2013-5-19,49,37,22,29,19,15,98,53,29,0.00,40.00,5,2,13,0.05
2013-5-20,55,42,28,24,21,16,85,46,28,0.00,40.00,5,4,11,0.00
2013-5-21,54,43,27,32,27,21,90,56,35,0.00,40.00,6,4,11,0.00
2013-5-22,58,46,33,39,32,28,84,60,36,0.00,40.00,6,3,12,0.00
2013-5-23,56,48,38,47,41,37,100,78,52,0.00,40.00,4,2,9,0.02
2013-5-24,69,53,35,43,38,34,98,62,32,0.00,40.00,6,3,12,0.01
2013-5-25,71,56,37,39,32,25,81,44,20,0.00,40.00,7,4,15,0.00
2013-5-26,63,51,31,40,34,24,87,54,33,0.00,40.00,7,3,15,0.00
2013-5-27,75,60,40,46,41,35,93,53,29,0.00,40.00,5,3,11,0.00
2013-5-28,79,60,35,46,41,34,98,56,28,0.00,40.00,5,3,11,0.00
2013-5-29,81,66,45,46,41,36,84,45,25,0.00,40.00,5,3,14,0.00
2013-5-30,71,59,41,46,41,38,91,57,31,0.00,40.00,5,3,11,0.00
2013-5-31,62,52,38,47,43,37,99,75,55,0.00,40.00,6,3,11,0.00
2013-6-1,56,49,45,46,44,42,99,84,65,0.00,40.00,4,2,9,0.01
2013-6-2,59,49,45,49,45,42,100,89,63,0.00,40.00,4,2,9,0.36
2013-6-3,57,50,42,47,43,38,93,75,56,0.00,40.00,4,2,9,0.01
2013-6-4,62,51,40,44,38,29,99,65,35,0.00,40.00,9,3,20,0.00
2013-6-5,63,52,36,43,36,29,85,56,39,0.00,40.00,5,3,13,0.00
2013-6-6,70,57,39,41,35,30,77,46,28,0.00,40.00,6,4,15,0.00
2013-6-7,76,58,36,45,39,34,96,55,24,0.00,40.00,6,3,19,0.00
2013-6-8,76,60,40,47,42,38,94,56,31,0.00,40.00,5,2,9,0.00
2013-6-9,78,64,44,50,43,37,89,52,26,0.00,40.00,5,3,11,0.00
2013-6-10,78,65,46,50,43,39,82,49,30,0.00,40.00,5,3,12,0.00
2013-6-11,77,62,43,50,44,39,92,55,29,0.00,40.00,5,3,11,0.00
2013-6-12,79,66,49,51,43,37,79,47,25,0.00,40.00,4,3,13,0.00
2013-6-13,72,60,45,57,43,32,86,54,39,0.00,40.00,5,3,13,0.00
2013-6-14,75,61,39,50,46,38,100,61,35,0.00,40.00,5,3,10,0.00
2013-6-15,76,60,41,53,48,41,100,69,38,0.00,40.00,4,2,10,0.00
2013-6-16,85,65,44,59,51,42,99,64,34,0.00,40.00,4,2,10,0.00
2013-6-17,87,67,49,57,52,47,96,66,33,0.00,40.00,4,2,9,0.00
2013-6-18,87,71,53,63,50,42,91,53,23,0.00,40.00,5,3,13,0.00
2013-6-19,77,66,46,52,44,39,90,48,31,0.00,40.00,7,3,14,0.00
2013-6-20,72,59,43,52,46,40,97,66,48,0.00,40.00,4,2,11,0.00
2013-6-22,73,62,43,54,47,42,96,60,38,0.00,40.00,5,2,10,0.00
2013-6-23,73,60,40,51,46,39,99,64,39,0.00,40.00,4,2,11,0.00
2013-6-24,76,64,54,54,48,42,83,57,40,0.00,40.00,5,3,12,0.00
2013-6-25,78,64,44,55,50,44,99,66,40,0.00,40.00,5,2,14,0.00
2013-6-26,84,67,50,61,53,48,99,65,33,0.00,40.00,6,2,14,0.00
2013-6-27,71,64,54,58,53,50,95,70,56,0.00,40.00,5,3,15,0.00
2013-6-28,59,56,54,55,54,52,98,91,82,0.00,40.00,2,1,5,0.00
2013-6-29,67,59,52,56,54,52,100,85,63,0.00,40.00,2,1,6,0.00
2013-6-30,59,56,53,56,52,49,96,86,76,0.00,40.00,3,2,8,0.00
2013-7-1,57,53,49,52,50,48,100,91,74,0.00,40.00,3,2,11,0.01
2013-7-2,63,55,46,51,47,41,100,78,53,0.00,40.00,5,2,11,0.01
2013-7-3,63,54,45,51,46,41,100,77,51,0.00,40.00,4,2,10,0.00
2013-7-4,56,53,48,52,48,41,99,84,57,0.00,40.00,4,2,12,0.15
2013-7-5,64,54,46,52,49,45,100,83,57,0.00,40.00,3,2,13,0.04
2013-7-6,65,53,48,55,50,48,100,92,62,0.00,40.00,3,2,8,0.05
2013-7-7,70,57,47,54,50,44,100,81,45,0.00,40.00,7,3,16,0.03
2013-7-8,65,52,46,51,46,-100,100,86,55,0.00,40.00,4,2,9,0.02
2013-7-9,69,58,47,52,49,46,99,74,49,0.00,40.00,5,2,11,0.01
2013-7-10,75,62,49,55,49,-100,98,67,43,0.00,40.00,5,2,10,0.01
2013-7-11,79,65,49,58,51,48,99,66,36,0.00,40.00,4,2,8,0.00
2013-7-12,81,66,51,57,50,46,94,60,32,0.00,40.00,4,3,10,0.00
2013-7-13,76,66,53,54,52,47,92,63,43,0.00,40.00,4,2,10,0.00
2013-7-14,69,58,48,56,52,48,100,81,55,0.00,40.00,5,2,10,0.00
2013-7-15,63,56,44,54,51,44,100,86,72,0.00,40.00,3,1,6,0.00
2013-7-16,70,64,58,58,55,53,92,71,64,0.00,40.00,4,2,9,0.00
2013-7-17,72,64,54,61,57,54,100,80,62,0.00,40.00,6,2,13,0.00
2013-7-18,76,66,52,63,57,52,100,75,58,0.00,40.00,5,3,12,0.00
2013-7-19,74,66,55,61,55,52,95,68,50,0.00,40.00,6,4,15,0.00
2013-7-20,73,62,53,61,53,48,99,76,44,0.00,40.00,5,2,10,0.20
2013-7-21,80,66,42,54,47,41,100,57,30,0.00,40.00,6,3,12,0.01
2013-7-22,83,70,43,53,49,42,100,50,33,0.00,40.00,5,3,10,0.00
2013-7-23,82,67,51,58,51,44,89,60,34,0.00,40.00,4,2,9,0.00
2013-7-24,83,68,52,57,53,48,94,62,37,0.00,40.00,4,3,10,0.00
2013-7-25,79,66,57,65,57,53,96,73,48,0.00,40.00,5,3,11,0.00
2013-7-26,74,63,55,62,58,55,100,87,61,0.00,40.00,5,2,10,0.02
2013-7-27,72,63,54,59,57,53,100,82,61,0.00,40.00,3,1,8,0.01
2013-7-28,80,65,54,62,58,53,100,81,51,0.00,40.00,5,2,8,0.00
2013-7-29,78,65,50,62,57,50,100,78,50,0.00,40.00,5,2,9,0.00
2013-7-30,78,64,48,60,55,48,100,77,52,0.00,40.00,4,2,10,0.00
2013-7-31,57,52,49,56,52,49,100,99,95,0.00,40.00,2,1,4,0.00
2013-8-2,74,67,57,58,55,52,87,66,50,0.00,40.00,4,3,9,0.00
2013-8-3,72,63,53,57,50,43,99,66,35,0.00,40.00,6,3,20,0.00
2013-8-4,66,60,52,55,51,46,95,73,56,0.00,40.00,3,2,11,0.00
2013-8-5,69,61,51,56,51,43,100,72,45,0.00,40.00,6,2,15,0.00
2013-8-6,66,58,49,56,52,46,100,80,59,0.00,40.00,4,1,11,0.00
2013-8-7,61,55,52,58,54,52,100,97,88,0.00,40.00,2,1,5,0.07
2013-8-8,68,57,51,58,52,46,100,87,62,0.00,40.00,5,2,13,0.01
2013-8-9,57,52,49,55,52,48,100,98,87,0.00,40.00,4,2,9,0.25
2013-8-10,62,55,49,57,53,49,100,95,77,0.00,40.00,3,1,7,0.37
2013-8-11,57,54,49,57,54,49,100,100,98,0.00,40.00,3,1,6,0.52
2013-8-12,71,60,55,61,58,55,100,91,69,0.00,40.00,3,1,9,0.40
2013-8-13,72,59,49,60,54,-100,100,86,67,0.00,40.00,5,2,11,0.01
2013-8-14,60,56,52,55,51,-100,100,89,76,0.00,40.00,3,2,7,0.00
2013-8-15,69,55,47,56,41,-100,100,78,57,0.00,40.00,4,2,7,0.00
2013-8-16,60,53,44,56,52,44,100,95,79,0.00,40.00,3,1,7,0.05
2013-8-17,70,56,49,60,52,-100,100,89,65,0.00,40.00,5,2,12,0.11
2013-8-18,61,56,53,59,56,53,100,98,92,0.00,40.00,4,2,11,0.66
2013-8-19,57,52,52,56,44,-100,100,92,74,0.00,40.00,4,2,11,0.54
2013-8-20,61,53,49,57,52,-100,100,98,80,0.00,40.00,3,1,6,0.21
2013-8-21,58,53,49,57,52,49,100,99,94,0.00,40.00,2,1,6,0.41
2013-8-22,56,53,49,55,52,49,100,99,96,0.00,40.00,2,1,6,0.52
2013-8-23,69,58,51,59,54,51,100,89,59,0.00,40.00,4,2,9,0.11
2013-8-24,71,56,47,55,48,-100,100,81,43,0.00,40.00,4,2,8,0.30
2013-8-25,70,52,36,47,42,36,100,74,39,0.00,40.00,3,2,8,0.01
2013-8-26,67,55,39,52,46,39,100,74,47,0.00,40.00,4,2,11,0.00
2013-8-27,60,50,46,53,47,44,100,92,76,0.00,40.00,4,2,10,0.00
2013-8-28,64,57,50,54,52,49,100,83,58,0.00,40.00,4,2,7,0.40
2013-8-29,57,52,50,56,52,50,100,99,96,0.00,40.00,4,2,8,0.41
2013-8-30,60,54,48,57,52,48,100,94,79,0.00,40.00,5,2,10,0.01
2013-8-31,57,51,45,56,50,-100,100,97,91,0.00,40.00,3,1,6,0.07
2013-9-1,57,53,49,54,52,49,100,96,86,0.00,40.00,4,2,8,0.11
2013-9-2,62,55,51,57,52,46,100,91,56,0.00,40.00,9,3,28,0.28
2013-9-3,66,55,49,55,51,47,100,86,63,0.00,40.00,6,3,19,0.16
2013-9-4,56,51,45,55,50,45,100,97,87,0.00,40.00,4,2,9,0.36
2013-9-5,64,51,39,49,44,39,100,81,45,0.00,40.00,5,2,14,0.03
2013-9-6,53,45,38,51,45,38,100,98,90,0.00,40.00,3,2,6,0.14
2013-9-7,61,51,47,54,49,-100,100,94,75,0.00,40.00,3,2,7,0.07
2013-9-8,58,52,45,54,50,45,100,95,73,0.00,40.00,5,3,13,0.87
2013-9-9,55,50,45,53,49,45,100,97,86,0.00,40.00,4,2,9,0.02
2013-9-10,54,51,47,53,50,47,100,98,90,0.00,40.00,3,2,6,0.03
2013-9-11,58,52,48,53,50,48,100,96,78,0.00,40.00,2,1,11,0.93
2013-9-12,62,51,39,54,47,39,100,90,60,0.00,40.00,5,2,9,0.01
2013-9-13,59,51,45,53,49,45,100,94,70,0.00,40.00,3,2,7,0.19
2013-9-14,66,50,39,52,45,-100,100,87,57,0.00,40.00,3,2,7,0.06
2013-9-15,65,49,36,45,41,36,100,77,43,0.00,40.00,3,2,7,0.00
2013-9-16,57,43,31,44,38,31,100,84,48,0.00,40.00,4,2,9,0.00
2013-9-17,53,47,42,48,45,42,100,94,78,0.00,40.00,3,1,8,0.03
2013-9-18,48,44,43,46,44,43,100,99,93,0.00,40.00,2,1,6,0.25
2013-9-19,53,43,33,44,38,28,100,85,41,0.00,40.00,4,2,9,0.37
2013-9-20,50,34,21,33,26,21,100,78,36,0.00,40.00,4,2,10,0.05
2013-9-21,45,35,26,39,29,-100,100,85,61,0.00,40.00,4,2,10,0.01
2013-9-22,40,37,34,39,35,31,100,92,78,0.00,40.00,4,2,11,0.03
2013-9-23,41,34,27,37,33,27,100,97,75,0.00,40.00,4,2,11,0.19
2013-9-24,44,33,21,37,31,21,100,93,75,0.00,40.00,4,2,9,0.02
2013-9-25,49,42,38,46,42,36,100,98,90,0.00,40.00,4,3,11,0.72
2013-9-26,51,45,41,48,44,41,100,98,84,0.00,40.00,3,2,7,0.31
2013-9-27,51,44,39,48,42,39,100,95,74,0.00,40.00,4,2,9,0.02
2013-9-28,55,40,30,42,34,-100,100,86,52,0.00,40.00,3,2,9,0.00
2013-9-29,53,41,28,38,32,28,100,74,41,0.00,40.00,4,2,8,0.00
2013-9-30,57,40,26,34,30,26,100,71,38,0.00,40.00,3,2,9,0.00
2013-10-1,53,45,38,39,34,27,100,71,40,0.00,40.00,3,1,7,0.02
2013-10-2,48,41,35,45,40,35,100,98,87,0.00,40.00,3,1,4,0.15
2013-10-3,48,41,33,45,40,33,100,97,82,0.00,40.00,4,2,7,0.01
2013-10-4,56,42,32,42,36,32,100,83,46,0.00,40.00,4,2,10,0.00
2013-10-5,50,40,29,43,36,29,100,87,67,0.00,40.00,5,2,11,0.00
2013-10-6,44,39,35,44,39,35,100,100,97,0.00,40.00,2,1,6,0.40
2013-10-7,48,41,33,41,38,33,100,91,68,0.00,40.00,3,2,9,0.23
2013-10-8,50,44,39,45,40,37,100,85,63,0.00,40.00,14,7,41,0.64
2013-10-9,51,42,32,40,34,26,97,76,42,0.00,40.00,6,4,15,0.32
2013-10-10,40,34,31,31,-23,-100,83,41,60,0.00,40.00,5,2,12,0.01
2013-11-2,-200,0,200,-100,-100,-100,0,0,100,0.00,40.00,0,0,0,0.00
2013-11-4,32,32,32,-100,-100,-100,0,0,100,0.00,40.00,0,0,0,0.00
2013-11-5,32,32,32,-100,-100,-100,0,0,100,0.00,40.00,0,0,0,0.00